Terminal Aerodrome Forecast
Issued by NWS

Home | Current Version | Previous Version | Text Only | Print | Product List | Glossary On
Versions: 1 2 3 4 5 6 7 8 9 10 11 12 13 14 15 16 17 18 19 20 21 22 23 24
000
FTUS41 KOKX 302340
TAFSWF
TAF
KSWF 302340Z 0100/0206 09008KT P6SM OVC040
     FM010100 10009KT P6SM SCT015 BKN030
     FM010300 12005KT P6SM OVC020
     FM010600 12004KT 6SM BR SCT008 OVC012
     FM010900 VRB03KT 3/4SM -DZ BR OVC004
     FM011500 20008KT 6SM BR SCT007 BKN015
     FM011900 21012G18KT P6SM BKN035
     FM012100 21016G24KT P6SM SCT035 SCT250
     FM012300 21012G18KT P6SM SCT025 BKN035
      AMD NOT SKED=

USA.gov is the U.S. government's official web portal to all federal, state and local government web resources and services.